< < Back
Terminal Aerodrome Forecast


Current Version              Previous Versions:   1  2  3  4  5  6  7  8  9  

Terminal Aerodrome Forecast

144
FTUS42 KFFC 200500
TAFPDK
TAF
KPDK 200520Z 2006/2106 05008KT P6SM SCT030 OVC060
     FM202000 07008KT P6SM SCT060
     FM210000 06006KT P6SM FEW060 SCT250=



Latest METAR

314
SAUS70 KWBC 202100 RRB
MTRPDK
METAR KPDK 202053Z 05006KT 10SM CLR 23/04 A3014 RMK AO2 SLP201 T02330044
58020


USA.gov is the U.S. government's official web portal to all federal, state and local government web resources and services.